createdAt,value
2023-03-25T00:02:22.082Z,34.85
2023-03-25T00:04:54.526Z,34.79
2023-03-25T00:07:21.296Z,35.01
2023-03-25T00:09:48.032Z,35.09
2023-03-25T00:12:14.668Z,34.87
2023-03-25T00:14:42.144Z,35.01
2023-03-25T00:17:08.468Z,35.01
2023-03-25T00:19:35.528Z,34.88
2023-03-25T00:22:01.891Z,35.04
2023-03-25T00:24:28.237Z,35.19
2023-03-25T00:26:54.558Z,35.04
2023-03-25T00:29:20.924Z,34.93
2023-03-25T00:31:47.507Z,35.17
2023-03-25T00:34:14.808Z,35.28
2023-03-25T00:36:41.456Z,35.18
2023-03-25T00:39:08.410Z,35.14
2023-03-25T00:41:36.999Z,35.30
2023-03-25T00:44:03.434Z,35.14
2023-03-25T00:46:30.555Z,34.93
2023-03-25T00:48:56.927Z,35.24
2023-03-25T00:51:23.526Z,35.27
2023-03-25T00:53:53.463Z,35.22
2023-03-25T00:56:20.206Z,35.28
2023-03-25T00:58:46.513Z,35.30
2023-03-25T01:01:13.976Z,35.29
2023-03-25T01:03:40.754Z,35.27
2023-03-25T01:06:11.419Z,35.22
2023-03-25T01:08:38.484Z,35.29
2023-03-25T01:11:05.067Z,35.26
2023-03-25T01:13:31.403Z,35.14
2023-03-25T01:15:57.754Z,35.35
2023-03-25T01:18:24.098Z,35.39
2023-03-25T01:20:50.480Z,35.25
2023-03-25T01:23:16.839Z,35.40
2023-03-25T01:25:43.204Z,35.19
2023-03-25T01:28:09.523Z,35.43
2023-03-25T01:30:35.892Z,35.23
2023-03-25T01:33:02.313Z,35.13
2023-03-25T01:35:28.868Z,35.27
2023-03-25T01:37:55.209Z,35.38
2023-03-25T01:40:23.349Z,35.24
2023-03-25T01:42:49.699Z,35.19
2023-03-25T01:45:36.614Z,35.15
2023-03-25T01:48:06.193Z,35.39
2023-03-25T01:50:33.308Z,35.27
2023-03-25T01:53:00.011Z,35.35
2023-03-25T01:55:27.433Z,35.39
2023-03-25T01:57:54.388Z,35.35
2023-03-25T02:00:21.409Z,35.45
2023-03-25T02:02:47.777Z,35.34
2023-03-25T02:05:21.085Z,35.28
2023-03-25T02:07:47.981Z,35.34
2023-03-25T02:10:14.300Z,35.29
2023-03-25T02:12:41.383Z,35.39
2023-03-25T02:15:08.004Z,35.42
2023-03-25T02:17:49.894Z,35.38
2023-03-25T02:20:24.526Z,35.50
2023-03-25T02:22:50.799Z,35.47
2023-03-25T02:25:19.146Z,35.40
2023-03-25T02:27:57.025Z,35.50
2023-03-25T02:30:37.597Z,35.45
2023-03-25T02:33:19.325Z,35.45
2023-03-25T02:35:49.887Z,35.44
2023-03-25T02:38:36.696Z,35.52
2023-03-25T02:41:14.278Z,35.61
2023-03-25T02:43:45.502Z,35.36
2023-03-25T02:46:13.071Z,35.59
2023-03-25T02:48:58.165Z,35.53
2023-03-25T02:51:26.046Z,35.36
2023-03-25T02:53:52.418Z,35.45
2023-03-25T02:56:22.821Z,35.37
2023-03-25T02:58:49.792Z,35.46
2023-03-25T03:01:16.164Z,35.33
2023-03-25T03:03:42.529Z,35.39
2023-03-25T03:06:09.470Z,35.65
2023-03-25T03:08:51.122Z,35.36
2023-03-25T03:11:36.270Z,35.58
2023-03-25T03:14:08.436Z,35.41
2023-03-25T03:16:58.268Z,35.45
2023-03-25T03:19:38.991Z,35.62
2023-03-25T03:22:14.315Z,35.54
2023-03-25T03:24:42.067Z,35.58
2023-03-25T03:27:14.790Z,35.59
2023-03-25T03:29:45.241Z,35.34
2023-03-25T03:32:32.678Z,35.51
2023-03-25T03:35:00.377Z,35.52
2023-03-25T03:37:37.401Z,35.30
2023-03-25T03:40:07.012Z,35.31
2023-03-25T03:42:37.836Z,35.54
2023-03-25T03:45:08.326Z,35.36
2023-03-25T03:47:39.654Z,35.45
2023-03-25T03:50:09.177Z,35.43
2023-03-25T03:52:40.227Z,35.50
2023-03-25T03:55:13.902Z,35.33
2023-03-25T03:57:41.814Z,35.46
2023-03-25T04:00:10.162Z,35.37
2023-03-25T04:02:49.532Z,35.48
2023-03-25T04:05:16.768Z,35.32
2023-03-25T04:07:43.009Z,35.51
2023-03-25T04:10:14.825Z,35.48
2023-03-25T04:12:42.045Z,35.43
2023-03-25T04:15:08.454Z,35.39
2023-03-25T04:17:34.891Z,35.55
2023-03-25T04:20:01.634Z,35.45
2023-03-25T04:22:28.007Z,35.66
2023-03-25T04:24:56.108Z,35.49
2023-03-25T04:27:25.118Z,35.56
2023-03-25T04:29:54.183Z,35.41
2023-03-25T04:32:20.569Z,35.61
2023-03-25T04:34:47.193Z,35.58
2023-03-25T04:37:13.881Z,35.52
2023-03-25T04:39:40.469Z,35.59
2023-03-25T04:42:06.782Z,35.49
2023-03-25T04:44:39.233Z,35.60
2023-03-25T04:47:05.871Z,35.44
2023-03-25T04:49:32.226Z,35.52
2023-03-25T04:51:59.175Z,35.64
2023-03-25T04:54:25.892Z,35.41
2023-03-25T04:56:52.377Z,35.53
2023-03-25T04:59:18.867Z,35.48
2023-03-25T05:01:45.884Z,35.48
2023-03-25T05:04:13.943Z,35.54
2023-03-25T05:06:41.729Z,35.54
2023-03-25T05:09:08.855Z,35.47
2023-03-25T05:11:36.912Z,35.52
2023-03-25T05:14:03.476Z,35.53
2023-03-25T05:16:29.830Z,35.58
2023-03-25T05:18:56.242Z,35.51
2023-03-25T05:21:22.569Z,35.58
2023-03-25T05:23:48.881Z,35.48
2023-03-25T05:26:15.210Z,35.57
2023-03-25T05:28:42.265Z,35.25
2023-03-25T05:31:09.347Z,35.61
2023-03-25T05:33:37.151Z,35.49
2023-03-25T05:36:04.132Z,35.48
2023-03-25T05:38:30.493Z,35.58
2023-03-25T05:40:56.828Z,35.35
2023-03-25T05:43:23.978Z,35.59
2023-03-25T05:45:50.483Z,35.54
2023-03-25T05:48:16.958Z,35.34
2023-03-25T05:50:43.292Z,35.56
2023-03-25T05:53:12.941Z,35.30
2023-03-25T05:55:39.358Z,35.53
2023-03-25T05:58:06.846Z,35.32
2023-03-25T06:00:34.970Z,35.43
2023-03-25T06:03:02.541Z,35.22
2023-03-25T06:05:29.603Z,35.28
2023-03-25T06:07:57.289Z,35.17
2023-03-25T06:10:23.622Z,35.31
2023-03-25T06:12:52.947Z,35.21
2023-03-25T06:15:21.179Z,35.24
2023-03-25T06:17:47.576Z,35.24
2023-03-25T06:20:16.346Z,35.20
2023-03-25T06:22:44.355Z,35.26
2023-03-25T06:25:11.631Z,35.31
2023-03-25T06:27:40.426Z,35.32
2023-03-25T06:30:10.279Z,35.27
2023-03-25T06:32:37.438Z,35.27
2023-03-25T06:35:04.308Z,35.29
2023-03-25T06:37:30.884Z,35.26
2023-03-25T06:39:59.757Z,35.29
2023-03-25T06:42:26.833Z,35.21
2023-03-25T06:44:53.508Z,35.55
2023-03-25T06:47:20.044Z,35.19
2023-03-25T06:49:46.429Z,35.20
2023-03-25T06:52:12.884Z,35.26
2023-03-25T06:54:39.222Z,35.22
2023-03-25T06:57:06.031Z,35.15
2023-03-25T06:59:32.354Z,35.11
2023-03-25T07:01:58.883Z,35.19
2023-03-25T07:04:25.230Z,35.10
2023-03-25T07:06:51.945Z,35.08
2023-03-25T07:09:18.287Z,35.08
2023-03-25T07:11:44.606Z,34.86
2023-03-25T07:14:10.950Z,34.90
2023-03-25T07:16:37.284Z,34.91
2023-03-25T07:19:03.620Z,34.96
2023-03-25T07:21:29.936Z,35.03
2023-03-25T07:23:56.289Z,35.04
2023-03-25T07:26:22.625Z,35.10
2023-03-25T07:28:48.945Z,35.11
2023-03-25T07:31:15.653Z,35.08
2023-03-25T07:33:41.999Z,35.07
2023-03-25T07:36:08.711Z,35.14
2023-03-25T07:38:35.246Z,35.08
2023-03-25T07:41:04.807Z,35.02
2023-03-25T07:43:32.844Z,35.03
2023-03-25T07:45:59.522Z,34.76
2023-03-25T07:48:26.770Z,34.70
2023-03-25T07:50:53.180Z,34.48
2023-03-25T07:53:20.441Z,34.54
2023-03-25T07:55:46.874Z,34.48
2023-03-25T07:58:13.191Z,34.74
2023-03-25T08:00:39.516Z,34.70
2023-03-25T08:03:06.586Z,34.77
2023-03-25T08:05:33.083Z,34.79
2023-03-25T08:08:02.047Z,34.94
2023-03-25T08:10:28.495Z,34.69
2023-03-25T08:12:54.830Z,34.58
2023-03-25T08:15:24.493Z,34.64
2023-03-25T08:17:52.286Z,34.55
2023-03-25T08:20:18.729Z,34.57
2023-03-25T08:22:45.285Z,34.75
2023-03-25T08:25:11.676Z,34.66
2023-03-25T08:27:37.991Z,34.62
2023-03-25T08:30:05.168Z,34.64
2023-03-25T08:32:31.555Z,34.66
2023-03-25T08:34:57.928Z,34.21
2023-03-25T08:37:25.813Z,34.57
2023-03-25T08:39:55.126Z,34.72
2023-03-25T08:42:21.454Z,34.66
2023-03-25T08:44:47.791Z,34.87
2023-03-25T08:47:15.351Z,34.59
2023-03-25T08:49:41.902Z,34.75
2023-03-25T08:52:08.777Z,34.64
2023-03-25T08:54:35.304Z,34.53
2023-03-25T08:57:01.742Z,34.39
2023-03-25T08:59:28.312Z,34.33
2023-03-25T09:01:56.050Z,34.63
2023-03-25T09:04:23.056Z,34.63
2023-03-25T09:07:12.001Z,34.16
2023-03-25T09:09:38.664Z,34.46
2023-03-25T09:12:05.332Z,34.25
2023-03-25T09:14:31.642Z,34.16
2023-03-25T09:16:57.976Z,34.27
2023-03-25T09:19:24.589Z,33.78
2023-03-25T09:21:51.204Z,34.06
2023-03-25T09:24:17.528Z,34.03
2023-03-25T09:26:43.893Z,33.96
2023-03-25T09:29:10.560Z,34.01
2023-03-25T09:31:37.035Z,34.06
2023-03-25T09:34:03.397Z,33.88
2023-03-25T09:36:29.805Z,34.26
2023-03-25T09:38:56.364Z,33.97
2023-03-25T09:41:25.305Z,34.01
2023-03-25T09:43:56.513Z,33.94
2023-03-25T09:46:23.070Z,33.98
2023-03-25T09:48:49.407Z,34.33
2023-03-25T09:51:18.749Z,33.94
2023-03-25T09:53:51.037Z,33.92
2023-03-25T09:56:21.668Z,33.98
2023-03-25T09:58:48.494Z,33.93
2023-03-25T10:01:14.819Z,34.26
2023-03-25T10:03:51.753Z,34.16
2023-03-25T10:06:20.247Z,34.20
2023-03-25T10:08:52.443Z,34.26
2023-03-25T10:11:25.926Z,34.18
2023-03-25T10:13:58.319Z,34.18
2023-03-25T10:16:27.437Z,34.08
2023-03-25T10:18:59.884Z,34.23
2023-03-25T10:21:43.590Z,34.19
2023-03-25T10:24:18.972Z,33.94
2023-03-25T10:26:48.650Z,33.73
2023-03-25T10:29:16.271Z,33.91
2023-03-25T10:31:50.350Z,33.70
2023-03-25T10:34:20.496Z,33.69
2023-03-25T10:36:49.229Z,33.70
2023-03-25T10:39:19.153Z,34.01
2023-03-25T10:41:52.057Z,33.92
2023-03-25T10:44:19.338Z,34.08
2023-03-25T10:46:49.650Z,33.92
2023-03-25T10:49:18.203Z,34.05
2023-03-25T10:51:44.532Z,33.90
2023-03-25T10:54:11.674Z,33.99
2023-03-25T10:56:45.323Z,34.07
2023-03-25T10:59:18.767Z,34.02
2023-03-25T11:01:45.579Z,34.11
2023-03-25T11:04:12.976Z,34.06
2023-03-25T11:06:40.023Z,34.10
2023-03-25T11:09:25.419Z,34.16
2023-03-25T11:11:52.501Z,34.09
2023-03-25T11:14:26.227Z,34.18
2023-03-25T11:16:57.070Z,34.26
2023-03-25T11:19:27.618Z,34.22
2023-03-25T11:22:04.691Z,34.35
2023-03-25T11:24:34.392Z,34.31
2023-03-25T11:27:00.814Z,34.28
2023-03-25T11:29:27.310Z,34.27
2023-03-25T11:31:57.717Z,34.40
2023-03-25T11:34:24.929Z,34.16
2023-03-25T11:36:53.061Z,34.21
2023-03-25T11:39:25.236Z,34.22
2023-03-25T11:41:51.746Z,34.43
2023-03-25T11:44:31.075Z,34.21
2023-03-25T11:46:58.534Z,34.22
2023-03-25T11:49:26.049Z,34.27
2023-03-25T11:51:59.705Z,34.23
2023-03-25T11:54:26.112Z,34.47
2023-03-25T11:56:52.468Z,34.33
2023-03-25T11:59:23.231Z,34.41
2023-03-25T12:01:49.814Z,34.54
2023-03-25T12:04:20.858Z,34.59
2023-03-25T12:06:57.806Z,34.47
2023-03-25T12:09:24.872Z,34.57
2023-03-25T12:11:54.408Z,34.67
2023-03-25T12:14:39.144Z,34.77
2023-03-25T12:17:06.340Z,34.73
2023-03-25T12:19:41.138Z,34.69
2023-03-25T12:22:08.042Z,34.58
2023-03-25T12:24:47.983Z,34.70
2023-03-25T12:27:37.567Z,34.98
2023-03-25T12:30:13.326Z,34.72
2023-03-25T12:33:06.185Z,34.66
2023-03-25T12:35:41.384Z,34.87
2023-03-25T12:38:26.682Z,34.63
2023-03-25T12:40:59.245Z,34.47
2023-03-25T12:43:44.023Z,34.68
2023-03-25T12:46:14.794Z,34.64
2023-03-25T12:48:47.771Z,34.71
2023-03-25T12:51:23.166Z,34.52
2023-03-25T12:54:02.775Z,34.84
2023-03-25T12:56:29.060Z,34.67
2023-03-25T12:58:59.925Z,34.59
2023-03-25T13:01:49.595Z,34.85
2023-03-25T13:04:25.786Z,34.83
2023-03-25T13:06:52.132Z,34.74
2023-03-25T13:09:25.675Z,34.77
2023-03-25T13:11:53.409Z,34.56
2023-03-25T13:14:46.286Z,34.85
2023-03-25T13:17:18.530Z,34.78
2023-03-25T13:19:44.883Z,34.70
2023-03-25T13:22:19.075Z,34.77
2023-03-25T13:24:52.881Z,34.88
2023-03-25T13:27:19.349Z,34.81
2023-03-25T13:29:49.527Z,34.81
2023-03-25T13:32:17.504Z,34.75
2023-03-25T13:34:44.697Z,34.76
2023-03-25T13:37:12.414Z,34.81
2023-03-25T13:39:38.712Z,34.97
2023-03-25T13:42:06.770Z,34.91
2023-03-25T13:44:39.589Z,34.98
2023-03-25T13:47:05.861Z,34.92
2023-03-25T13:49:37.798Z,34.93
2023-03-25T13:52:04.126Z,34.99
2023-03-25T13:54:33.027Z,34.89
2023-03-25T13:57:19.130Z,35.03
2023-03-25T14:00:01.677Z,35.08
2023-03-25T14:02:27.980Z,34.94
2023-03-25T14:05:00.710Z,34.97
2023-03-25T14:07:29.825Z,35.00
2023-03-25T14:10:14.174Z,34.99
2023-03-25T14:12:47.446Z,35.07
2023-03-25T14:15:15.510Z,34.92
2023-03-25T14:17:42.122Z,35.02
2023-03-25T14:20:10.590Z,35.01
2023-03-25T14:22:40.380Z,35.06
2023-03-25T14:25:26.993Z,34.91
2023-03-25T14:27:53.333Z,35.03
2023-03-25T14:30:20.251Z,35.10
2023-03-25T14:32:46.706Z,35.09
2023-03-25T14:35:31.198Z,34.92
2023-03-25T14:38:09.455Z,35.14
2023-03-25T14:40:47.384Z,35.03
2023-03-25T14:43:31.829Z,34.94
2023-03-25T14:46:01.360Z,35.00
2023-03-25T14:48:37.394Z,35.03
2023-03-25T14:51:30.012Z,35.08
2023-03-25T14:53:59.664Z,35.08
2023-03-25T14:56:31.575Z,35.12
2023-03-25T14:58:58.173Z,34.93
2023-03-25T15:01:30.032Z,35.10
2023-03-25T15:04:14.370Z,35.00
2023-03-25T15:06:41.089Z,35.21
2023-03-25T15:09:11.801Z,35.26
2023-03-25T15:11:42.617Z,35.19
2023-03-25T15:14:14.058Z,35.33
2023-03-25T15:16:47.438Z,35.20
2023-03-25T15:19:17.344Z,35.29
2023-03-25T15:21:59.143Z,35.06
2023-03-25T15:24:25.443Z,35.12
2023-03-25T15:26:51.768Z,35.14
2023-03-25T15:29:21.144Z,35.15
2023-03-25T15:31:50.629Z,35.19
2023-03-25T15:34:37.401Z,35.01
2023-03-25T15:37:09.948Z,35.13
2023-03-25T15:39:39.248Z,35.15
2023-03-25T15:42:31.780Z,34.96
2023-03-25T15:45:07.320Z,34.92
2023-03-25T15:47:43.226Z,35.10
2023-03-25T15:50:22.084Z,35.17
2023-03-25T15:52:54.037Z,35.06
2023-03-25T15:55:21.173Z,35.38
2023-03-25T15:57:48.227Z,35.35
2023-03-25T16:00:15.886Z,35.57
2023-03-25T16:02:48.290Z,35.61
2023-03-25T16:05:14.612Z,35.44
2023-03-25T16:07:41.263Z,35.56
2023-03-25T16:10:16.227Z,35.30
2023-03-25T16:12:43.304Z,35.63
2023-03-25T16:15:13.172Z,35.55
2023-03-25T16:17:39.532Z,35.68
2023-03-25T16:20:07.684Z,35.69
2023-03-25T16:22:34.570Z,35.64
2023-03-25T16:25:01.609Z,35.78
2023-03-25T16:27:34.795Z,35.69
2023-03-25T16:30:01.341Z,35.68
2023-03-25T16:32:34.107Z,35.96
2023-03-25T16:35:00.860Z,35.78
2023-03-25T16:37:27.341Z,35.88
2023-03-25T16:39:56.774Z,35.72
2023-03-25T16:42:32.768Z,35.71
2023-03-25T16:44:59.095Z,35.80
2023-03-25T16:47:25.631Z,35.87
2023-03-25T16:49:52.492Z,35.90
2023-03-25T16:52:19.688Z,35.73
2023-03-25T16:54:47.313Z,35.90
2023-03-25T16:57:33.874Z,35.83
2023-03-25T17:00:05.944Z,35.89
2023-03-25T17:02:41.229Z,35.72
2023-03-25T17:05:16.153Z,35.74
2023-03-25T17:07:42.744Z,35.87
2023-03-25T17:10:19.612Z,35.62
2023-03-25T17:12:46.653Z,35.94
2023-03-25T17:15:14.455Z,35.92
2023-03-25T17:17:42.230Z,35.77
2023-03-25T17:20:12.724Z,35.72
2023-03-25T17:22:39.522Z,35.87
2023-03-25T17:25:18.391Z,35.88
2023-03-25T17:27:44.774Z,35.74
2023-03-25T17:30:15.499Z,35.66
2023-03-25T17:32:43.716Z,35.77
2023-03-25T17:35:15.939Z,35.69
2023-03-25T17:37:42.243Z,35.62
2023-03-25T17:40:11.738Z,35.67
2023-03-25T17:42:38.199Z,35.84
2023-03-25T17:45:04.643Z,35.71
2023-03-25T17:47:31.186Z,35.94
2023-03-25T17:49:58.856Z,35.59
2023-03-25T17:52:29.549Z,35.93
2023-03-25T17:54:57.755Z,36.03
2023-03-25T17:57:24.059Z,36.21
2023-03-25T17:59:51.579Z,36.26
2023-03-25T18:02:17.925Z,36.39
2023-03-25T18:04:44.259Z,36.63
2023-03-25T18:07:11.151Z,36.91
2023-03-25T18:09:37.561Z,37.43
2023-03-25T18:12:03.874Z,37.17
2023-03-25T18:14:30.425Z,37.18
2023-03-25T18:16:56.778Z,37.21
2023-03-25T18:19:24.153Z,37.33
2023-03-25T18:21:50.631Z,37.53
2023-03-25T18:24:16.991Z,37.71
2023-03-25T18:26:45.239Z,37.93
2023-03-25T18:29:21.860Z,37.82
2023-03-25T18:31:48.244Z,37.95
2023-03-25T18:34:14.950Z,38.16
2023-03-25T18:36:41.504Z,38.39
2023-03-25T18:39:11.617Z,38.02
2023-03-25T18:41:37.938Z,37.72
2023-03-25T18:44:04.262Z,37.91
2023-03-25T18:46:30.777Z,37.56
2023-03-25T18:49:02.218Z,37.51
2023-03-25T18:51:29.322Z,37.71
2023-03-25T18:53:55.745Z,37.74
2023-03-25T18:56:23.573Z,37.26
2023-03-25T18:58:49.968Z,37.36
2023-03-25T19:01:16.666Z,37.37
2023-03-25T19:03:43.152Z,37.32
2023-03-25T19:06:10.342Z,37.14
2023-03-25T19:08:37.008Z,37.03
2023-03-25T19:11:16.261Z,37.15
2023-03-25T19:13:46.876Z,37.03
2023-03-25T19:16:13.182Z,37.16
2023-03-25T19:18:39.516Z,36.91
2023-03-25T19:21:06.056Z,37.01
2023-03-25T19:23:32.536Z,37.09
2023-03-25T19:26:01.022Z,36.69
2023-03-25T19:28:27.449Z,36.50
2023-03-25T19:30:54.714Z,36.33
2023-03-25T19:33:21.397Z,35.82
2023-03-25T19:35:51.810Z,35.65
2023-03-25T19:38:22.760Z,35.26
2023-03-25T19:40:49.655Z,35.24
2023-03-25T19:43:16.075Z,35.03
2023-03-25T19:45:42.399Z,34.89
2023-03-25T19:48:08.768Z,34.67
2023-03-25T19:50:35.429Z,34.54
2023-03-25T19:53:02.129Z,34.47
2023-03-25T19:55:28.453Z,34.51
2023-03-25T19:57:54.784Z,34.18
2023-03-25T20:00:21.905Z,34.04
2023-03-25T20:02:49.149Z,34.30
2023-03-25T20:05:15.809Z,34.46
2023-03-25T20:07:42.575Z,34.07
2023-03-25T20:12:43.485Z,34.49
2023-03-25T20:15:10.695Z,34.45
2023-03-25T20:17:37.256Z,34.17
2023-03-25T20:20:06.989Z,34.35
2023-03-25T20:22:33.571Z,34.12
2023-03-25T20:24:59.899Z,34.24
2023-03-25T20:27:26.447Z,34.05
2023-03-25T20:29:53.022Z,34.15
2023-03-25T20:32:21.691Z,34.11
2023-03-25T20:34:48.612Z,34.01
2023-03-25T20:37:15.319Z,34.45
2023-03-25T20:39:41.657Z,34.49
2023-03-25T20:42:07.978Z,34.38
2023-03-25T20:44:34.383Z,34.18
2023-03-25T20:47:00.810Z,34.04
2023-03-25T20:49:27.178Z,34.10
2023-03-25T20:51:55.846Z,34.34
2023-03-25T20:54:22.220Z,33.92
2023-03-25T20:56:48.835Z,34.13
2023-03-25T20:59:16.661Z,34.03
2023-03-25T21:01:43.045Z,34.12
2023-03-25T21:04:11.415Z,33.99
2023-03-25T21:06:38.219Z,34.29
2023-03-25T21:09:07.542Z,33.75
2023-03-25T21:11:34.094Z,34.06
2023-03-25T21:14:00.402Z,34.32
2023-03-25T21:16:27.467Z,34.41
2023-03-25T21:18:56.470Z,34.41
2023-03-25T21:21:24.323Z,34.45
2023-03-25T21:23:50.755Z,34.61
2023-03-25T21:26:17.547Z,34.62
2023-03-25T21:28:43.918Z,34.40
2023-03-25T21:31:13.914Z,34.58
2023-03-25T21:33:40.254Z,34.50
2023-03-25T21:36:07.615Z,34.36
2023-03-25T21:38:36.737Z,34.73
2023-03-25T21:41:04.210Z,34.49
2023-03-25T21:43:31.072Z,34.51
2023-03-25T21:45:57.512Z,34.66
2023-03-25T21:48:32.373Z,34.67
2023-03-25T21:50:58.815Z,34.63
2023-03-25T21:53:25.593Z,34.70
2023-03-25T21:55:55.153Z,35.01
2023-03-25T21:58:22.104Z,35.01
2023-03-25T22:00:48.870Z,35.31
2023-03-25T22:03:18.712Z,35.43
2023-03-25T22:05:45.289Z,35.72
2023-03-25T22:08:11.616Z,35.57
2023-03-25T22:10:37.957Z,35.83
2023-03-25T22:13:04.267Z,37.10
2023-03-25T22:15:31.083Z,37.00
2023-03-25T22:17:57.467Z,37.14
2023-03-25T22:20:23.844Z,37.27
2023-03-25T22:22:51.381Z,36.68
2023-03-25T22:25:18.232Z,36.88
2023-03-25T22:27:44.544Z,37.12
2023-03-25T22:30:11.220Z,37.34
2023-03-25T22:32:37.602Z,36.82
2023-03-25T22:35:04.068Z,37.45
2023-03-25T22:37:30.635Z,37.21
2023-03-25T22:39:56.946Z,37.51
2023-03-25T22:42:25.642Z,37.28
2023-03-25T22:44:51.982Z,37.07
2023-03-25T22:47:18.294Z,37.25
2023-03-25T22:49:44.601Z,37.40
2023-03-25T22:52:12.424Z,37.31
2023-03-25T22:54:38.906Z,37.03
2023-03-25T22:57:05.891Z,37.69
2023-03-25T22:59:32.223Z,37.24
2023-03-25T23:01:58.583Z,37.29
2023-03-25T23:04:24.939Z,36.87
2023-03-25T23:07:00.634Z,37.52
2023-03-25T23:09:42.750Z,36.88
2023-03-25T23:12:13.079Z,37.13
2023-03-25T23:14:40.003Z,37.30
2023-03-25T23:17:06.331Z,37.45
2023-03-25T23:19:32.657Z,37.40
2023-03-25T23:21:59.646Z,37.48
2023-03-25T23:24:27.586Z,37.50
2023-03-25T23:26:54.048Z,37.59
2023-03-25T23:29:20.469Z,37.67
2023-03-25T23:31:46.834Z,37.62
2023-03-25T23:34:14.009Z,37.45
2023-03-25T23:36:40.359Z,37.33
2023-03-25T23:39:07.886Z,37.32
2023-03-25T23:41:34.262Z,37.68
2023-03-25T23:44:00.627Z,37.45
2023-03-25T23:46:27.437Z,37.61
2023-03-25T23:49:01.898Z,37.59
2023-03-25T23:51:28.971Z,37.65
2023-03-25T23:53:55.346Z,37.69
2023-03-25T23:56:22.574Z,37.81
2023-03-25T23:58:49.038Z,37.39
